Lawrenceville, Georgia
Current Conditions -  °F | °C
As of 10:45 AM on Friday 31 Oct 2014 (Local Time) from KLZU Reporting Station
Scattered Clouds Scattered Clouds  
Wind Chill: 57°   Ceiling: Unl
Heat Index: 57°   Visibility: 10mi
Dew Point: 37°   Wind: 8mph
Humidity: 48%   Direction: 60°ENE
Pressure: 29.92"   Gusts: NA
Location:  33.95°N, 83.99°W
Report Text: KLZU 311445Z 06007KT 10SM SCT100 14/03 A2992 RMK ATIS Q RWY 25 LL
Loading
Personal Weather Stations






























Interactive Weather Map
Tropical Storm Tracking
New forecast layout! Learn more

10-Day Weather Forecast

Advertisements
Track Severe Weather on mobile